createdAt,value
2022-10-17T00:00:37.166Z,5.03
2022-10-17T00:03:07.763Z,6.07
2022-10-17T00:05:44.323Z,6.57
2022-10-17T00:08:14.764Z,6.38
2022-10-17T00:10:44.628Z,6.20
2022-10-17T00:13:14.448Z,6.57
2022-10-17T00:15:46.045Z,6.85
2022-10-17T00:18:15.865Z,6.47
2022-10-17T00:20:45.714Z,7.75
2022-10-17T00:23:15.597Z,6.85
2022-10-17T00:25:45.586Z,7.13
2022-10-17T00:28:16.149Z,8.77
2022-10-17T00:30:46.142Z,7.68
2022-10-17T00:33:16.022Z,8.10
2022-10-17T00:35:45.892Z,7.00
2022-10-17T00:38:16.046Z,8.50
2022-10-17T00:40:46.170Z,8.82
2022-10-17T00:43:19.431Z,8.32
2022-10-17T00:45:50.051Z,8.20
2022-10-17T00:48:22.643Z,9.10
2022-10-17T00:50:54.168Z,7.88
2022-10-17T00:53:24.265Z,6.82
2022-10-17T00:55:54.947Z,7.55
2022-10-17T00:58:24.939Z,7.38
2022-10-17T01:00:55.257Z,7.25
2022-10-17T01:03:25.484Z,8.15
2022-10-17T01:05:55.394Z,5.75
2022-10-17T01:08:25.400Z,6.95
2022-10-17T01:11:26.231Z,6.43
2022-10-17T01:14:27.737Z,7.38
2022-10-17T01:17:17.709Z,10.75
2022-10-17T01:20:01.388Z,11.63
2022-10-17T01:22:43.664Z,11.25
2022-10-17T01:25:35.159Z,11.23
2022-10-17T01:28:23.755Z,10.30
2022-10-17T01:31:04.876Z,10.68
2022-10-17T01:34:07.682Z,10.40
2022-10-17T01:36:41.269Z,9.85
2022-10-17T01:39:16.349Z,9.30
2022-10-17T01:41:52.468Z,9.93
2022-10-17T01:44:49.941Z,9.35
2022-10-17T01:47:23.620Z,8.43
2022-10-17T01:49:54.403Z,9.57
2022-10-17T01:52:29.745Z,8.73
2022-10-17T01:55:15.701Z,8.45
2022-10-17T01:57:53.359Z,7.10
2022-10-17T02:00:26.033Z,8.05
2022-10-17T02:03:04.454Z,7.97
2022-10-17T02:05:37.324Z,7.35
2022-10-17T02:08:07.646Z,6.65
2022-10-17T02:11:12.828Z,7.57
2022-10-17T02:17:05.715Z,6.65
2022-10-17T02:19:55.774Z,6.85
2022-10-17T02:22:45.264Z,7.13
2022-10-17T02:25:47.502Z,6.50
2022-10-17T02:28:32.077Z,7.25
2022-10-17T02:31:03.994Z,6.15
2022-10-17T02:34:00.674Z,7.13
2022-10-17T02:36:45.127Z,6.10
2022-10-17T02:39:15.180Z,6.45
2022-10-17T02:41:45.121Z,6.07
2022-10-17T02:44:15.078Z,6.03
2022-10-17T02:46:49.541Z,5.63
2022-10-17T02:49:28.617Z,6.25
2022-10-17T02:52:04.332Z,5.55
2022-10-17T02:54:43.244Z,5.80
2022-10-17T02:57:21.015Z,5.53
2022-10-17T02:59:50.905Z,6.45
2022-10-17T03:02:20.811Z,5.65
2022-10-17T03:04:50.753Z,5.97
2022-10-17T03:07:21.664Z,5.22
2022-10-17T03:09:51.882Z,5.65
2022-10-17T03:12:21.752Z,5.55
2022-10-17T03:15:05.988Z,6.15
2022-10-17T03:17:37.290Z,5.75
2022-10-17T03:20:07.870Z,6.00
2022-10-17T03:22:37.725Z,6.10
2022-10-17T03:25:08.962Z,5.75
2022-10-17T03:27:39.465Z,5.72
2022-10-17T03:30:10.130Z,6.05
2022-10-17T03:32:40.297Z,5.72
2022-10-17T03:35:14.089Z,5.07
2022-10-17T03:37:52.953Z,6.65
2022-10-17T03:40:25.242Z,5.35
2022-10-17T03:42:55.757Z,4.63
2022-10-17T03:45:26.393Z,6.43
2022-10-17T03:47:56.335Z,5.78
2022-10-17T03:50:26.982Z,5.40
2022-10-17T03:52:59.167Z,4.95
2022-10-17T03:55:33.923Z,4.80
2022-10-17T03:58:04.609Z,5.32
2022-10-17T04:00:37.649Z,5.32
2022-10-17T04:05:39.717Z,5.55
2022-10-17T04:08:09.792Z,3.97
2022-10-17T04:11:08.443Z,5.18
2022-10-17T04:13:38.768Z,4.68
2022-10-17T04:16:11.945Z,4.95
2022-10-17T04:18:49.390Z,4.20
2022-10-17T04:21:20.310Z,4.03
2022-10-17T04:23:50.283Z,4.38
2022-10-17T04:26:32.582Z,4.38
2022-10-17T04:29:02.578Z,4.75
2022-10-17T04:31:32.725Z,3.83
2022-10-17T04:34:17.490Z,3.33
2022-10-17T04:36:48.325Z,3.75
2022-10-17T04:39:18.370Z,3.33
2022-10-17T04:41:48.883Z,3.47
2022-10-17T04:44:19.222Z,3.35
2022-10-17T04:46:53.963Z,3.47
2022-10-17T04:49:25.428Z,3.55
2022-10-17T04:52:01.272Z,4.30
2022-10-17T04:54:40.534Z,6.32
2022-10-17T04:57:12.664Z,5.47
2022-10-17T04:59:46.233Z,6.30
2022-10-17T05:02:26.134Z,7.63
2022-10-17T05:04:56.172Z,6.35
2022-10-17T05:07:26.695Z,7.25
2022-10-17T05:10:03.318Z,7.43
2022-10-17T05:12:34.528Z,6.20
2022-10-17T05:15:04.518Z,7.25
2022-10-17T05:17:34.602Z,7.05
2022-10-17T05:20:04.599Z,6.72
2022-10-17T05:22:39.620Z,6.55
2022-10-17T05:25:13.090Z,7.10
2022-10-17T05:27:43.060Z,7.65
2022-10-17T05:30:13.171Z,6.88
2022-10-17T05:32:43.840Z,7.10
2022-10-17T05:35:13.742Z,6.35
2022-10-17T05:37:44.361Z,6.65
2022-10-17T05:40:14.628Z,6.05
2022-10-17T05:42:49.975Z,6.95
2022-10-17T05:45:21.676Z,5.40
2022-10-17T05:47:52.082Z,7.18
2022-10-17T05:50:23.192Z,6.80
2022-10-17T05:53:09.952Z,6.30
2022-10-17T05:55:45.678Z,5.55
2022-10-17T05:58:22.251Z,7.05
2022-10-17T06:01:10.675Z,5.70
2022-10-17T06:03:42.743Z,6.20
2022-10-17T06:06:14.120Z,6.82
2022-10-17T06:08:46.619Z,8.40
2022-10-17T06:11:20.667Z,7.60
2022-10-17T06:13:53.351Z,7.75
2022-10-17T06:16:27.040Z,8.95
2022-10-17T06:18:56.992Z,5.78
2022-10-17T06:21:28.404Z,5.97
2022-10-17T06:24:10.289Z,7.63
2022-10-17T06:26:43.516Z,8.13
2022-10-17T06:29:27.043Z,7.38
2022-10-17T06:31:57.591Z,6.45
2022-10-17T06:34:29.882Z,6.57
2022-10-17T06:36:59.886Z,5.38
2022-10-17T06:39:34.920Z,6.03
2022-10-17T06:42:11.403Z,5.50
2022-10-17T06:44:59.251Z,4.90
2022-10-17T06:47:47.979Z,4.63
2022-10-17T06:50:49.861Z,4.35
2022-10-17T06:53:23.636Z,4.40
2022-10-17T06:56:12.148Z,4.30
2022-10-17T06:59:01.591Z,5.15
2022-10-17T07:01:33.743Z,4.38
2022-10-17T07:04:07.054Z,3.63
2022-10-17T07:06:37.190Z,3.95
2022-10-17T07:09:12.939Z,4.03
2022-10-17T07:11:43.402Z,4.88
2022-10-17T07:14:13.266Z,5.07
2022-10-17T07:16:43.824Z,4.18
2022-10-17T07:19:21.082Z,5.03
2022-10-17T07:21:52.558Z,3.92
2022-10-17T07:24:22.944Z,3.53
2022-10-17T07:26:59.788Z,3.15
2022-10-17T07:29:31.683Z,3.25
2022-10-17T07:32:14.597Z,2.60
2022-10-17T07:34:44.978Z,2.47
2022-10-17T07:37:15.662Z,2.38
2022-10-17T07:39:51.841Z,2.95
2022-10-17T07:42:22.029Z,2.22
2022-10-17T07:44:55.695Z,1.42
2022-10-17T07:47:32.462Z,1.05
2022-10-17T07:50:04.592Z,1.42
2022-10-17T07:52:35.056Z,0.97
2022-10-17T07:55:05.238Z,1.17
2022-10-17T07:57:35.791Z,1.08
2022-10-17T08:00:07.590Z,0.95
2022-10-17T08:02:42.064Z,0.60
2022-10-17T08:05:12.237Z,0.73
2022-10-17T08:07:43.162Z,1.10
2022-10-17T08:10:16.761Z,1.27
2022-10-17T08:12:46.698Z,0.73
2022-10-17T08:15:16.536Z,0.68
2022-10-17T08:17:46.586Z,0.63
2022-10-17T08:20:16.819Z,0.65
2022-10-17T08:23:08.070Z,0.70
2022-10-17T08:25:41.681Z,0.68
2022-10-17T08:28:12.477Z,0.88
2022-10-17T08:30:43.412Z,0.50
2022-10-17T08:33:15.756Z,0.40
2022-10-17T08:35:45.614Z,0.50
2022-10-17T08:38:17.808Z,0.57
2022-10-17T08:40:50.687Z,0.40
2022-10-17T08:43:55.963Z,0.63
2022-10-17T08:46:29.214Z,0.30
2022-10-17T08:48:59.094Z,0.30
2022-10-17T08:51:35.556Z,0.43
2022-10-17T08:54:26.229Z,0.40
2022-10-17T08:56:57.161Z,0.40
2022-10-17T08:59:30.985Z,0.77
2022-10-17T09:02:30.115Z,0.38
2022-10-17T09:05:37.082Z,0.55
2022-10-17T09:08:36.882Z,0.40
2022-10-17T09:11:21.199Z,0.17
2022-10-17T09:14:03.227Z,0.40
2022-10-17T09:16:49.703Z,0.20
2022-10-17T09:19:33.909Z,0.40
2022-10-17T09:22:22.594Z,0.40
2022-10-17T09:25:04.582Z,0.30
2022-10-17T09:27:42.161Z,0.70
2022-10-17T09:30:45.465Z,0.40
2022-10-17T09:33:28.609Z,0.30
2022-10-17T09:36:08.748Z,0.38
2022-10-17T09:38:43.798Z,1.13
2022-10-17T09:42:05.837Z,4.70
2022-10-17T09:44:37.533Z,6.10
2022-10-17T09:47:31.267Z,6.22
2022-10-17T09:50:04.092Z,7.78
2022-10-17T09:52:36.729Z,7.78
2022-10-17T09:55:25.843Z,9.73
2022-10-17T09:57:57.711Z,9.35
2022-10-17T10:00:48.674Z,8.52
2022-10-17T10:03:22.439Z,7.47
2022-10-17T10:06:06.166Z,7.75
2022-10-17T10:08:56.959Z,7.45
2022-10-17T10:11:45.330Z,7.38
2022-10-17T10:14:34.593Z,6.22
2022-10-17T10:17:06.014Z,7.15
2022-10-17T10:19:40.088Z,5.97
2022-10-17T10:22:20.410Z,5.43
2022-10-17T10:25:10.080Z,5.03
2022-10-17T10:27:43.857Z,6.03
2022-10-17T10:30:21.254Z,4.80
2022-10-17T10:32:51.143Z,6.20
2022-10-17T10:35:23.984Z,7.13
2022-10-17T10:37:55.369Z,6.15
2022-10-17T10:40:48.212Z,6.43
2022-10-17T10:43:47.954Z,6.90
2022-10-17T10:46:21.875Z,5.40
2022-10-17T10:49:02.074Z,5.28
2022-10-17T10:51:35.803Z,5.57
2022-10-17T10:54:27.626Z,4.45
2022-10-17T10:56:59.867Z,5.18
2022-10-17T10:59:52.482Z,5.17
2022-10-17T11:02:55.416Z,3.72
2022-10-17T11:05:27.084Z,5.60
2022-10-17T11:08:35.845Z,4.57
2022-10-17T11:11:30.892Z,4.70
2022-10-17T11:14:02.809Z,5.00
2022-10-17T11:16:46.592Z,4.65
2022-10-17T11:19:42.102Z,4.82
2022-10-17T11:22:32.510Z,4.88
2022-10-17T11:25:05.956Z,5.43
2022-10-17T11:27:38.879Z,6.50
2022-10-17T11:30:10.800Z,5.22
2022-10-17T11:33:01.662Z,6.15
2022-10-17T11:35:42.552Z,5.75
2022-10-17T11:38:30.843Z,6.47
2022-10-17T11:41:01.402Z,7.00
2022-10-17T11:43:33.306Z,5.95
2022-10-17T11:46:29.665Z,6.82
2022-10-17T11:49:04.098Z,6.50
2022-10-17T11:52:03.237Z,6.40
2022-10-17T11:54:47.345Z,6.53
2022-10-17T11:57:30.090Z,6.53
2022-10-17T12:00:06.206Z,7.30
2022-10-17T12:02:44.219Z,7.18
2022-10-17T12:05:34.150Z,6.57
2022-10-17T12:08:08.983Z,6.82
2022-10-17T12:11:08.559Z,6.43
2022-10-17T12:13:52.907Z,6.43
2022-10-17T12:16:22.712Z,7.97
2022-10-17T12:19:22.121Z,7.43
2022-10-17T12:22:02.328Z,8.38
2022-10-17T12:24:45.961Z,8.13
2022-10-17T12:27:36.513Z,8.63
2022-10-17T12:30:30.122Z,9.35
2022-10-17T12:33:07.746Z,10.70
2022-10-17T12:35:39.227Z,9.40
2022-10-17T12:38:21.366Z,9.90
2022-10-17T12:40:53.954Z,11.13
2022-10-17T12:43:29.964Z,10.52
2022-10-17T12:46:01.249Z,10.55
2022-10-17T12:48:42.988Z,11.35
2022-10-17T12:51:38.155Z,12.13
2022-10-17T12:54:16.037Z,11.35
2022-10-17T12:56:47.522Z,10.73
2022-10-17T12:59:28.011Z,10.05
2022-10-17T13:02:01.717Z,10.77
2022-10-17T13:04:31.799Z,10.90
2022-10-17T13:07:02.488Z,10.90
2022-10-17T13:09:39.662Z,10.38
2022-10-17T13:12:14.525Z,10.23
2022-10-17T13:14:44.677Z,10.63
2022-10-17T13:17:31.893Z,9.95
2022-10-17T13:20:01.872Z,11.43
2022-10-17T13:22:33.469Z,9.65
2022-10-17T13:25:35.527Z,10.80
2022-10-17T13:28:13.742Z,11.02
2022-10-17T13:30:49.585Z,10.77
2022-10-17T13:33:37.214Z,10.23
2022-10-17T13:36:09.691Z,10.50
2022-10-17T13:38:41.860Z,10.38
2022-10-17T13:44:16.950Z,11.05
2022-10-17T13:46:46.977Z,10.48
2022-10-17T13:49:35.914Z,10.35
2022-10-17T13:52:06.749Z,11.52
2022-10-17T13:54:36.794Z,10.88
2022-10-17T13:57:18.666Z,10.90
2022-10-17T13:59:52.416Z,12.20
2022-10-17T14:02:24.558Z,11.73
2022-10-17T14:05:17.286Z,11.50
2022-10-17T14:08:11.306Z,11.80
2022-10-17T14:10:42.435Z,10.43
2022-10-17T14:13:41.538Z,10.90
2022-10-17T14:16:11.812Z,10.70
2022-10-17T14:18:41.943Z,11.50
2022-10-17T14:24:24.038Z,11.88
2022-10-17T14:27:00.049Z,11.90
2022-10-17T14:29:34.493Z,11.65
2022-10-17T14:32:09.732Z,12.73
2022-10-17T14:34:41.643Z,12.95
2022-10-17T14:37:33.595Z,13.02
2022-10-17T14:40:04.888Z,12.80
2022-10-17T14:42:34.771Z,13.80
2022-10-17T14:45:09.890Z,13.52
2022-10-17T14:47:43.757Z,14.70
2022-10-17T14:50:26.848Z,13.25
2022-10-17T14:53:22.974Z,12.10
2022-10-17T14:56:02.904Z,14.35
2022-10-17T14:58:34.131Z,14.15
2022-10-17T15:01:04.231Z,13.68
2022-10-17T15:03:34.197Z,13.60
2022-10-17T15:06:18.047Z,13.43
2022-10-17T15:08:48.908Z,13.23
2022-10-17T15:11:19.683Z,14.80
2022-10-17T15:13:49.656Z,13.75
2022-10-17T15:16:34.788Z,13.43
2022-10-17T15:19:07.710Z,13.98
2022-10-17T15:24:16.999Z,13.75
2022-10-17T15:26:47.067Z,14.20
2022-10-17T15:29:17.933Z,13.35
2022-10-17T15:31:47.930Z,13.32
2022-10-17T15:34:17.908Z,13.93
2022-10-17T15:36:53.050Z,14.10
2022-10-17T15:39:23.001Z,14.50
2022-10-17T15:41:52.944Z,14.93
2022-10-17T15:44:22.914Z,15.02
2022-10-17T15:46:53.020Z,16.42
2022-10-17T15:49:22.955Z,16.50
2022-10-17T15:51:55.413Z,17.15
2022-10-17T15:54:25.534Z,16.25
2022-10-17T15:56:56.179Z,16.80
2022-10-17T15:59:29.540Z,15.60
2022-10-17T16:01:59.451Z,16.20
2022-10-17T16:04:31.743Z,15.77
2022-10-17T16:07:01.949Z,17.45
2022-10-17T16:09:32.025Z,14.90
2022-10-17T16:12:07.508Z,15.15
2022-10-17T16:14:45.452Z,17.15
2022-10-17T16:17:19.249Z,17.95
2022-10-17T16:19:52.094Z,17.42
2022-10-17T16:22:33.846Z,16.60
2022-10-17T16:25:08.936Z,16.73
2022-10-17T16:27:39.003Z,17.48
2022-10-17T16:30:09.690Z,15.55
2022-10-17T16:32:39.635Z,18.25
2022-10-17T16:35:10.160Z,15.63
2022-10-17T16:37:40.154Z,17.17
2022-10-17T16:40:10.672Z,17.23
2022-10-17T16:42:40.546Z,16.85
2022-10-17T16:45:11.321Z,17.52
2022-10-17T16:47:41.134Z,17.33
2022-10-17T16:50:11.544Z,18.95
2022-10-17T16:52:41.487Z,17.60
2022-10-17T16:55:11.731Z,17.67
2022-10-17T16:57:41.667Z,17.35
2022-10-17T17:00:13.153Z,16.30
2022-10-17T17:02:43.076Z,16.35
2022-10-17T17:05:13.267Z,16.15
2022-10-17T17:07:46.440Z,14.40
2022-10-17T17:10:16.364Z,15.05
2022-10-17T17:12:46.285Z,14.98
2022-10-17T17:15:16.320Z,14.10
2022-10-17T17:17:50.441Z,13.60
2022-10-17T17:20:22.224Z,13.73
2022-10-17T17:22:53.439Z,14.27
2022-10-17T17:25:24.053Z,14.18
2022-10-17T17:27:53.949Z,14.18
2022-10-17T17:30:23.956Z,13.73
2022-10-17T17:32:55.252Z,13.73
2022-10-17T17:35:26.263Z,13.70
2022-10-17T17:37:56.172Z,12.77
2022-10-17T17:40:27.893Z,13.38
2022-10-17T17:42:57.840Z,13.48
2022-10-17T17:45:27.738Z,13.10
2022-10-17T17:47:57.970Z,13.15
2022-10-17T17:50:28.572Z,12.50
2022-10-17T17:53:01.525Z,11.82
2022-10-17T17:55:31.405Z,11.93
2022-10-17T17:58:01.361Z,11.50
2022-10-17T18:00:31.347Z,11.73
2022-10-17T18:03:01.356Z,11.82
2022-10-17T18:05:31.551Z,12.45
2022-10-17T18:08:01.645Z,11.30
2022-10-17T18:10:31.638Z,12.52
2022-10-17T18:13:01.603Z,12.98
2022-10-17T18:15:31.748Z,13.10
2022-10-17T18:18:02.118Z,12.95
2022-10-17T18:20:32.963Z,12.25
2022-10-17T18:23:04.198Z,12.90
2022-10-17T18:25:34.866Z,13.80
2022-10-17T18:28:05.182Z,13.70
2022-10-17T18:30:39.806Z,13.68
2022-10-17T18:33:09.731Z,12.02
2022-10-17T18:35:39.679Z,12.50
2022-10-17T18:38:09.641Z,12.90
2022-10-17T18:40:40.058Z,12.00
2022-10-17T18:43:10.520Z,13.05
2022-10-17T18:45:40.520Z,12.98
2022-10-17T18:48:13.571Z,12.93
2022-10-17T18:50:43.512Z,12.02
2022-10-17T18:53:13.451Z,12.55
2022-10-17T18:55:43.660Z,12.27
2022-10-17T18:58:13.604Z,11.70
2022-10-17T19:00:43.478Z,12.40
2022-10-17T19:03:13.839Z,12.68
2022-10-17T19:05:46.300Z,12.45
2022-10-17T19:08:16.746Z,12.50
2022-10-17T19:10:46.591Z,12.82
2022-10-17T19:13:20.769Z,12.48
2022-10-17T19:15:51.596Z,11.88
2022-10-17T19:18:24.707Z,11.02
2022-10-17T19:20:54.659Z,11.27
2022-10-17T19:23:24.787Z,10.63
2022-10-17T19:25:55.965Z,11.73
2022-10-17T19:28:28.382Z,10.50
2022-10-17T19:30:58.659Z,10.13
2022-10-17T19:36:09.148Z,11.50
2022-10-17T19:38:39.050Z,9.93
2022-10-17T19:41:13.365Z,9.90
2022-10-17T19:43:44.120Z,9.35
2022-10-17T19:46:15.869Z,8.93
2022-10-17T19:48:45.850Z,9.18
2022-10-17T19:51:17.586Z,8.80
2022-10-17T19:53:47.665Z,7.97
2022-10-17T19:56:19.808Z,8.80
2022-10-17T19:58:50.146Z,8.60
2022-10-17T20:01:21.846Z,8.82
2022-10-17T20:03:51.998Z,8.65
2022-10-17T20:06:21.955Z,7.60
2022-10-17T20:08:51.955Z,8.52
2022-10-17T20:11:26.757Z,7.97
2022-10-17T20:13:56.843Z,6.60
2022-10-17T20:16:29.042Z,7.25
2022-10-17T20:19:05.152Z,8.20
2022-10-17T20:21:40.500Z,8.23
2022-10-17T20:24:12.473Z,6.97
2022-10-17T20:26:42.415Z,7.15
2022-10-17T20:29:17.548Z,6.88
2022-10-17T20:31:47.838Z,6.95
2022-10-17T20:34:18.923Z,7.15
2022-10-17T20:36:49.187Z,7.00
2022-10-17T20:39:19.958Z,6.70
2022-10-17T20:41:49.946Z,6.57
2022-10-17T20:44:20.129Z,5.53
2022-10-17T20:47:01.157Z,6.35
2022-10-17T20:49:32.602Z,6.20
2022-10-17T20:52:02.661Z,6.45
2022-10-17T20:54:32.632Z,5.97
2022-10-17T20:57:04.895Z,5.35
2022-10-17T20:59:37.888Z,6.53
2022-10-17T21:02:07.962Z,6.25
2022-10-17T21:04:46.736Z,6.00
2022-10-17T21:07:17.058Z,5.68
2022-10-17T21:09:47.527Z,5.50
2022-10-17T21:12:26.044Z,5.40
2022-10-17T21:15:01.770Z,5.80
2022-10-17T21:17:31.859Z,5.18
2022-10-17T21:20:01.751Z,5.15
2022-10-17T21:22:31.896Z,5.85
2022-10-17T21:25:02.019Z,5.55
2022-10-17T21:27:31.905Z,6.38
2022-10-17T21:30:01.944Z,4.90
2022-10-17T21:32:47.226Z,5.20
2022-10-17T21:35:20.813Z,4.68
2022-10-17T21:37:50.721Z,4.28
2022-10-17T21:40:20.776Z,4.72
2022-10-17T21:42:50.666Z,5.20
2022-10-17T21:45:25.771Z,4.43
2022-10-17T21:48:12.319Z,5.05
2022-10-17T21:50:43.086Z,4.30
2022-10-17T21:53:13.008Z,4.00
2022-10-17T21:55:46.058Z,3.88
2022-10-17T22:00:45.466Z,3.97
2022-10-17T22:03:16.343Z,4.03
2022-10-17T22:05:46.851Z,4.28
2022-10-17T22:08:16.983Z,3.78
2022-10-17T22:10:46.819Z,4.53
2022-10-17T22:13:16.691Z,3.97
2022-10-17T22:15:46.544Z,3.47
2022-10-17T22:18:16.500Z,4.03
2022-10-17T22:20:46.429Z,3.58
2022-10-17T22:23:16.390Z,3.50
2022-10-17T22:25:53.778Z,4.22
2022-10-17T22:28:23.915Z,3.63
2022-10-17T22:30:54.014Z,3.92
2022-10-17T22:33:26.695Z,3.33
2022-10-17T22:35:59.147Z,3.40
2022-10-17T22:38:29.250Z,3.33
2022-10-17T22:40:59.141Z,3.38
2022-10-17T22:43:29.042Z,4.03
2022-10-17T22:46:00.948Z,4.32
2022-10-17T22:48:30.998Z,3.20
2022-10-17T22:51:01.146Z,3.80
2022-10-17T22:53:31.324Z,3.25
2022-10-17T22:56:02.567Z,3.80
2022-10-17T22:58:33.259Z,3.70
2022-10-17T23:01:03.366Z,3.67
2022-10-17T23:03:33.780Z,3.58
2022-10-17T23:06:03.881Z,3.65
2022-10-17T23:08:33.844Z,3.65
2022-10-17T23:11:04.167Z,3.00
2022-10-17T23:13:34.063Z,3.03
2022-10-17T23:16:04.772Z,3.80
2022-10-17T23:18:34.732Z,3.90
2022-10-17T23:21:04.680Z,3.80
2022-10-17T23:23:34.934Z,3.83
2022-10-17T23:26:08.639Z,4.25
2022-10-17T23:28:38.856Z,3.88
2022-10-17T23:31:18.164Z,4.60
2022-10-17T23:33:48.999Z,3.55
2022-10-17T23:36:20.269Z,3.83
2022-10-17T23:38:52.624Z,4.00
2022-10-17T23:41:24.971Z,3.75
2022-10-17T23:43:54.915Z,4.35
2022-10-17T23:46:24.839Z,5.50
2022-10-17T23:48:54.836Z,4.63
2022-10-17T23:51:25.039Z,4.38
2022-10-17T23:53:55.009Z,4.78
2022-10-17T23:56:24.875Z,4.90
2022-10-17T23:58:54.775Z,5.15
